首页
METAR-TAF:

METAR-TAF

机场 :

图克托亚图克, 西北特區, 加拿大

纬度: 69-27N, 经度: 133-01W, 海拔: 5米

当前天气观测

该预报发布于26分钟前的00:00 UTC
风速6节,风向
温度 -17°C
湿度 84%
气压 1015 hPa
能見度: 24.1公里
多云层高于4500英尺
小雪

METAR: CYUB 080000Z 09006KT 15SM -SN BKN045 M17/M19 A2997 RMK SC7 WND ESTD SLP150

时间: 17:26 (00:26 UTC)

预报

该预报发布于5小时和48分钟前的18:38 UTC
预报有效从07日的 19点(UTC)到 08日的 06点(UTC)
风速5节,风向
能見度: 10公里
阴天层高于4000英尺
小雪
短暂存在
从 07日的 19点(UTC)到 07日的 24点(UTC)
能見度: 8.0公里
阴天层高于2000英尺
小雪
成为
从 07日的 20点(UTC)到 07日的 22点(UTC)
风速8节,风向东南
从 08日的 0000点(UTC)
风速10节,风向东转东南
能見度: 10公里
散云层高于4000英尺
短暂存在
从 08日的 00点(UTC)到 08日的 06点(UTC)
能見度: 8.0公里
冰针

TAF: CYUB 071838Z 0719/0806 09005KT P6SM -SN OVC040 TEMPO 0719/0724 5SM -SN OVC020 BECMG 0720/0722 13008KT FM080000 12010KT P6SM SCT040 TEMPO 0800/0806 5SM IC RMK NXT FCST BY 080100Z

超过4000个机场的气象观测和天气预报(METAR&TAF报告)。

可查询的气象台以黄色和红色小点在地图上表示。

将鼠标移到小点上方,可查看气象台名称。

然后点击查看天气观测和预报。

如需切换地图:点击带黑十字的绿色按钮放大地图;点击带横线的绿色按钮缩小地图;或者点击绿色箭头查看邻近地区的地图。


METAR-TAF: